Nearby METAR Reports

 

KTEB - Teterboro, New Jersey, USA
Distance from station: ENE 2mi, 4km
Updated: 10/02/2022 9:51pm
Partly cloudy
Partly cloudy
 Wind from NE
Wind: NE 13 mph , 20 km/h, Gust: 24 mph , 39 km/h
Temperature: 54°F , 12°C
Dew Point: 27°F , -3°C
Humidity: 35%
Barometer: 30.19 inHg , 1022.4 hPa
Clouds: Partly cloudy
Visibility: 10 miles , 16 km
Cloud details: Few Clouds 7000 ft
Few Clouds 10000 ft
Partly cloudy 11000 ft
2022/10/03 01:51 KTEB 030151Z 04011G21KT 10SM FEW070 FEW100 SCT110 12/M03 A3019 RMK AO2 SLP223 T01171033
KNYC - Nyc/Central Park, New York, USA
Distance from station: SE 8mi, 13km
Updated: 10/02/2022 9:51pm
Overcast
Overcast
 Wind from ENE
Wind: ENE 16 mph , 26 km/h, Gust: 30 mph , 48 km/h
Temperature: 54°F , 12°C
Dew Point: 28°F , -2°C
Humidity: 38%
Barometer: 30.21 inHg , 1023 hPa
Clouds: Overcast
Visibility: 10 miles , 16 km
Cloud details: Partly cloudy 6500 ft
Mostly cloudy 8000 ft
Overcast 11000 ft
2022/10/03 01:51 KNYC 030151Z AUTO 06014G26KT 010V080 10SM SCT065 BKN080 OVC110 12/M02 A3021 RMK AO2 PK WND 05030/0113 RAE03 SLP222 P0000 T01171017 $
 
KCDW - Caldwell, New Jersey, USA
Distance from station: WNW 10mi, 17km
Updated: 10/02/2022 9:53pm
Light rain, Overcast
Light rain, Overcast
 Wind from ENE
Wind: ENE 15 mph , 24 km/h, Gust: 23 mph , 37 km/h
Temperature: 54°F , 12°C
Dew Point: 27°F , -3°C
Humidity: 35%
Barometer: 30.20 inHg , 1022.7 hPa
Summary: Light rain
Clouds: Overcast
Visibility: 10 miles , 16 km
Cloud details: Few Clouds 7500 ft
Overcast 10000 ft
2022/10/03 01:53 KCDW 030153Z 06013G20KT 10SM -RA FEW075 OVC100 12/M03 A3020 RMK AO2 RAB02 SLP231 P0000 T01171028
KLGA - Nyc/La Guardia, New York, USA
Distance from station: ESE 12mi, 19km
Updated: 10/02/2022 9:51pm
Light rain, Overcast
Light rain, Overcast
 Wind from NE
Wind: NE 18 mph , 30 km/h, Gust: 29 mph , 46 km/h
Temperature: 54°F , 12°C
Dew Point: 32°F , 0°C
Humidity: 44%
Barometer: 30.19 inHg , 1022.4 hPa
Summary: Light rain
Clouds: Overcast
Visibility: 10 miles , 16 km
Cloud details: Partly cloudy 6000 ft
Mostly cloudy 8000 ft
Overcast 10000 ft
2022/10/03 01:51 KLGA 030151Z 04016G25KT 10SM -RA SCT060 BKN080 OVC100 12/00 A3019 RMK AO2 PK WND 03026/0129 RAB05 SLP223 P0000 T01170000
 
KEWR - Newark, New Jersey, USA
Distance from station: SSW 12mi, 20km
Updated: 10/02/2022 9:51pm
Light rain, Overcast
Light rain, Overcast
 Wind from NNE
Wind: NNE 22 mph , 35 km/h, Gust: 31 mph , 50 km/h
Temperature: 50°F , 10°C
Wind Chill: 43°F , 6°C
Dew Point: 34°F , 1°C
Humidity: 54%
Barometer: 30.18 inHg , 1022 hPa
Summary: Light rain
Clouds: Overcast
Visibility: 10 miles , 16 km
Cloud details: Partly cloudy 5000 ft
Mostly cloudy 8000 ft
Overcast 11000 ft
2022/10/03 01:51 KEWR 030151Z 02019G27KT 10SM -RA SCT050 BKN080 OVC110 10/01 A3018 RMK AO2 PK WND 04029/0124 RAB09 SLP219 P0000 T01000006 $
KMMU - Morristown Muni, New Jersey, USA
Distance from station: WSW 18mi, 29km
Updated: 10/02/2022 9:45pm
Partly cloudy
Partly cloudy
 Wind from NE
Wind: NE 14 mph , 22 km/h, Gust: 23 mph , 37 km/h
Temperature: 52°F , 11°C
Dew Point: 36°F , 2°C
Humidity: 54%
Barometer: 30.19 inHg , 1022.4 hPa
Clouds: Partly cloudy
Visibility: 10 miles , 16 km
Cloud details: Partly cloudy 10000 ft
2022/10/03 01:45 KMMU 030145Z 05012G20KT 10SM SCT100 11/02 A3019
 
KJFK - Nyc/Jfk Arpt, New York, USA
Distance from station: SE 23mi, 36km
Updated: 10/02/2022 9:51pm
Light rain, Overcast
Light rain, Overcast
 Wind from NNE
Wind: NNE 24 mph , 39 km/h, Gust: 32 mph , 52 km/h
Temperature: 52°F , 11°C
Dew Point: 37°F , 3°C
Humidity: 58%
Barometer: 30.18 inHg , 1022 hPa
Summary: Light rain
Clouds: Overcast
Visibility: 10 miles , 16 km
Cloud details: Mostly cloudy 7000 ft
Overcast 9500 ft
2022/10/03 01:51 KJFK 030151Z 03021G28KT 10SM -RA BKN070 OVC095 11/03 A3018 RMK AO2 PK WND 02030/0123 RAB0056 SLP219 P0001 T01060033
KHPN - White Plains, New York, USA
Distance from station: NE 25mi, 40km
Updated: 10/02/2022 9:56pm
Overcast
Overcast
 Wind from NNE
Wind: NNE 7 mph , 11 km/h
Temperature: 50°F , 10°C
Wind Chill: 47°F , 8°C
Dew Point: 32°F , 0°C
Humidity: 50%
Barometer: 30.21 inHg , 1023 hPa
Clouds: Overcast
Visibility: 10 miles , 16 km
Cloud details: Few Clouds 7000 ft
Overcast 10000 ft
2022/10/03 01:56 KHPN 030156Z AUTO 03006KT 10SM FEW070 OVC100 10/00 A3021 RMK AO2 RAB40E52 SLP231 P0000 T01000000
 
KSMQ - Somerville, New Jersey, USA
Distance from station: WSW 34mi, 55km
Updated: 10/02/2022 9:53pm
Overcast
Overcast
 Wind from NE
Wind: NE 9 mph , 15 km/h
Temperature: 54°F , 12°C
Dew Point: 36°F , 2°C
Humidity: 51%
Barometer: 30.15 inHg , 1021 hPa
Clouds: Overcast
Visibility: 10 miles , 16 km
Cloud details: Overcast 11000 ft
2022/10/03 01:53 KSMQ 030153Z AUTO 04008KT 010V090 10SM OVC110 12/02 A3015 RMK AO2 RAE31 SLP212 P0000 T01220017
K12N - Andover, New Jersey, USA
Distance from station: WNW 36mi, 57km
Updated: 10/02/2022 9:54pm

 Wind from NNE
Wind: NNE 8 mph , 13 km/h
Temperature: 55°F , 13°C
Dew Point: 43°F , 6°C
Humidity: 63%
Barometer: 30.20 inHg , 1022.7 hPa
2022/10/03 01:54 K12N 030154Z AUTO 03007KT 340V060 13/06 A3020 RMK AO1 SLP226 T01280061
 
KFRG - Farmingdale, New York, USA
Distance from station: ESE 36mi, 58km
Updated: 10/02/2022 9:53pm
Mostly cloudy
Mostly cloudy
 Wind from NE
Wind: NE 16 mph , 26 km/h, Gust: 26 mph , 43 km/h
Temperature: 52°F , 11°C
Dew Point: 37°F , 3°C
Humidity: 58%
Barometer: 30.18 inHg , 1022 hPa
Clouds: Mostly cloudy
Visibility: 10 miles , 16 km
Cloud details: Partly cloudy 6500 ft
Mostly cloudy 9000 ft
Mostly cloudy 11000 ft
2022/10/03 01:53 KFRG 030153Z AUTO 04014G23KT 10SM SCT065 BKN090 BKN110 11/03 A3018 RMK AO2 PK WND 05028/0127 RAB25E34 SLP221 P0000 T01110033
KFWN - Sussex, New Jersey, USA
Distance from station: NW 37mi, 60km
Updated: 10/02/2022 9:53pm
Clear
Clear
 Wind from NE
Wind: NE 9 mph , 15 km/h
Temperature: 54°F , 12°C
Dew Point: 45°F , 7°C
Humidity: 72%
Barometer: 30.23 inHg , 1023.7 hPa
Clouds: Clear
Visibility: 10 miles , 16 km
2022/10/03 01:53 KFWN 030153Z AUTO 04008KT 10SM CLR 12/07 A3023 RMK AO2 SLP236 T01220072 $
 
KSWF - Newburgh/Stewart, New York, USA
Distance from station: 0 45mi, 72km
Updated: 10/02/2022 9:45pm
Partly cloudy
Partly cloudy
 Wind from NE
Wind: NE 9 mph , 15 km/h
Temperature: 52°F , 11°C
Dew Point: 45°F , 7°C
Humidity: 77%
Barometer: 30.25 inHg , 1024.4 hPa
Clouds: Partly cloudy
Visibility: 10 miles , 16 km
Cloud details: Partly cloudy 9000 ft
2022/10/03 01:45 KSWF 030145Z 04008KT 10SM SCT090 11/07 A3025
KMGJ - Montgomery, New York, USA
Distance from station: NNW 47mi, 75km
Updated: 09/29/2022 12:54am
NOT Current

 Wind from calm
Wind: Calm
Temperature: 46°F , 8°C
Dew Point: 45°F , 7°C
Humidity: 93%
Barometer: 30.28 inHg , 1025.4 hPa
2022/09/29 04:54 KMGJ 290454Z AUTO 00000KT 08/07 A3028 RMK AO2 SLP255 T00780072 402000050 TSNO $
 
KBLM - Belmar/Farmdale, New Jersey, USA
Distance from station: S 47mi, 76km
Updated: 10/02/2022 9:56pm
Light rain, Overcast
Light rain, Overcast
 Wind from NNE
Wind: NNE 10 mph , 17 km/h, Gust: 18 mph , 30 km/h
Temperature: 48°F , 9°C
Wind Chill: 44°F , 7°C
Dew Point: 48°F , 9°C
Humidity: 100%
Barometer: 30.16 inHg , 1021.3 hPa
Summary: Light rain
Clouds: Overcast
Visibility: 10 miles , 16 km
Cloud details: Few Clouds 3400 ft
Overcast 6000 ft
2022/10/03 01:56 KBLM 030156Z AUTO 02009G16KT 10SM -RA FEW034 OVC060 09/09 A3016 RMK AO2 SLP213 P0003 T00890089
KDXR - Danbury, Connecticut, USA
Distance from station: NE 47mi, 76km
Updated: 10/02/2022 9:53pm
Clear
Clear
 Wind from NE
Wind: NE 8 mph , 13 km/h
Temperature: 52°F , 11°C
Dew Point: 30°F , -1°C
Humidity: 44%
Barometer: 30.25 inHg , 1024.4 hPa
Clouds: Clear
Visibility: 10 miles , 16 km
2022/10/03 01:53 KDXR 030153Z 04007KT 10SM CLR 11/M01 A3025 RMK AO2 SLP244 T01061011
 
KISP - Islip, New York, USA
Distance from station: E 52mi, 83km
Updated: 10/02/2022 9:56pm
Overcast
Overcast
 Wind from NNE
Wind: NNE 20 mph , 31 km/h, Gust: 30 mph , 48 km/h
Temperature: 52°F , 11°C
Dew Point: 43°F , 6°C
Humidity: 72%
Barometer: 30.18 inHg , 1022 hPa
Clouds: Overcast
Visibility: 10 miles , 16 km
Cloud details: Few Clouds 3700 ft
Mostly cloudy 8500 ft
Overcast 10000 ft
2022/10/03 01:56 KISP 030156Z 03017G26KT 10SM FEW037 BKN085 OVC100 11/06 A3018 RMK AO2 PK WND 05026/0153 RAE34 SLP217 P0001 T01110056
KBDR - Bridgeport, Connecticut, USA
Distance from station: ENE 54mi, 87km
Updated: 10/02/2022 9:52pm
Clear
Clear
 Wind from NNE
Wind: NNE 15 mph , 24 km/h, Gust: 22 mph , 35 km/h
Temperature: 52°F , 11°C
Dew Point: 32°F , 0°C
Humidity: 47%
Barometer: 30.22 inHg , 1023.4 hPa
Clouds: Clear
Visibility: 10 miles , 16 km
2022/10/03 01:52 KBDR 030152Z 03013G19KT 10SM CLR 11/00 A3022 RMK AO2 SLP234 T01110000
 
KTTN - Trenton, New Jersey, USA
Distance from station: SW 55mi, 88km
Updated: 10/02/2022 9:53pm
Light rain, Overcast
Light rain, Overcast
 Wind from NE
Wind: NE 9 mph , 15 km/h
Temperature: 48°F , 9°C
Wind Chill: 44°F , 7°C
Dew Point: 43°F , 6°C
Humidity: 82%
Barometer: 30.15 inHg , 1021 hPa
Summary: Light rain
Clouds: Overcast
Visibility: 10 miles , 16 km
Cloud details: Partly cloudy 7000 ft
Overcast 9000 ft
2022/10/03 01:53 KTTN 030153Z 04008KT 10SM -RA SCT070 OVC090 09/06 A3015 RMK AO2 SLP203 P0005 T00890056
KPOU - Poughkeepsie, New York, USA
Distance from station: N 55mi, 89km
Updated: 10/02/2022 9:53pm
Clear
Clear
 Wind from NNE
Wind: NNE 5 mph , 7 km/h
Temperature: 52°F , 11°C
Dew Point: 43°F , 6°C
Humidity: 72%
Barometer: 30.26 inHg , 1024.7 hPa
Clouds: Clear
Visibility: 10 miles , 16 km
2022/10/03 01:53 KPOU 030153Z AUTO 02004KT 10SM CLR 11/06 A3026 RMK AO2 SLP242 T01060056
 
KNEL - Lakehurst Nas, New Jersey, USA
Distance from station: SSW 59mi, 95km
Updated: 10/02/2022 10:00pm
Light rain, Overcast
Light rain, Overcast
 Wind from NE
Wind: NE 12 mph , 19 km/h
Temperature: 48°F , 9°C
Wind Chill: 43°F , 6°C
Dew Point: 45°F , 7°C
Humidity: 87%
Barometer: 30.15 inHg , 1021 hPa
Summary: Light rain
Clouds: Overcast
Visibility: 10 miles , 16 km
Cloud details: Mostly cloudy 3600 ft
Mostly cloudy 4800 ft
Overcast 5500 ft
2022/10/03 02:00 KNEL 030200Z AUTO 05010KT 10SM -RA BKN036 BKN048 OVC055 09/07 A3015 RMK AO2 SLP208 T00890067 PNO $
KWRI - Wrightst/Mcguire, New Jersey, USA
Distance from station: SSW 63mi, 102km
Updated: 10/02/2022 9:55pm
Light rain, Mostly cloudy
Light rain, Mostly cloudy
 Wind from NE
Wind: NE 9 mph , 15 km/h
Temperature: 46°F , 8°C
Wind Chill: 41°F , 5°C
Dew Point: 45°F , 7°C
Humidity: 93%
Barometer: 30.16 inHg , 1021.3 hPa
Summary: Light rain
Clouds: Mostly cloudy
Visibility: 10 miles , 16 km
Cloud details: Mostly cloudy 4100 ft
2022/10/03 01:55 KWRI 030155Z 04008KT 10SM -RA BKN041 08/07 A3016 RMK AO2A SLP213 P0005 T00830068 $
 
KHWV - Shirley, New York, USA
Distance from station: E 64mi, 103km
Updated: 10/02/2022 9:56pm
Overcast
Overcast
 Wind from varies
Wind: varies 6 mph , 9 km/h, Gust: 20 mph , 31 km/h
Temperature: 54°F , 12°C
Dew Point: 39°F , 4°C
Humidity: 58%
Barometer: 30.18 inHg , 1022 hPa
Clouds: Overcast
Visibility: 10 miles , 16 km
Cloud details: Overcast 8000 ft
2022/10/03 01:56 KHWV 030156Z AUTO VRB05G17KT 10SM OVC080 12/04 A3018 RMK AO2 SLP221 T01170039
KMJX - Toms River, New Jersey, USA
Distance from station: S 64mi, 104km
Updated: 09/15/2022 11:56am
NOT Current
Clear
Clear
 Wind from NNW
Wind: NNW 10 mph , 17 km/h, Gust: 18 mph , 30 km/h
Temperature: 70°F , 21°C
Dew Point: 46°F , 8°C
Humidity: 43%
Barometer: 30.17 inHg , 1021.7 hPa
Clouds: Clear
Visibility: 10 miles , 16 km
2022/09/15 15:56 KMJX 151556Z AUTO 33009G16KT 10SM CLR 21/08 A3017 RMK AO2 SLP219 T02110083 TSNO
 
KDYL - Doylestown, Pennsylvania, USA
Distance from station: SW 65mi, 104km
Updated: 10/02/2022 9:54pm
Mostly cloudy
Mostly cloudy
 Wind from calm
Wind: Calm
Temperature: 48°F , 9°C
Dew Point: 45°F , 7°C
Humidity: 87%
Barometer: 30.16 inHg , 1021.3 hPa
Clouds: Mostly cloudy
Visibility: 10 miles , 16 km
Cloud details: Mostly cloudy 9500 ft
Mostly cloudy 12000 ft
2022/10/03 01:54 KDYL 030154Z AUTO 00000KT 10SM BKN095 BKN120 09/07 A3016 RMK AO2 RAE40 SLP213 T00940067 PNO $
KOXC - Oxford/Waterbury, Connecticut, USA
Distance from station: NE 65mi, 105km
Updated: 10/02/2022 9:51pm
Partly cloudy
Partly cloudy
 Wind from NE
Wind: NE 15 mph , 24 km/h, Gust: 24 mph , 39 km/h
Temperature: 48°F , 9°C
Wind Chill: 42°F , 6°C
Dew Point: 30°F , -1°C
Humidity: 50%
Barometer: 30.24 inHg , 1024 hPa
Clouds: Partly cloudy
Visibility: 10 miles , 16 km
Cloud details: Partly cloudy 12000 ft
2022/10/03 01:51 KOXC 030151Z AUTO 04013G21KT 10SM SCT120 09/M01 A3024 RMK AO2 SLP254 T00891006
 
KMSV - Monticello, New York, USA
Distance from station: NNW 69mi, 111km
Updated: 10/02/2022 9:56pm
Clear
Clear
 Wind from N
Wind: N 6 mph , 9 km/h
Temperature: 48°F , 9°C
Wind Chill: 45°F , 7°C
Dew Point: 41°F , 5°C
Humidity: 76%
Barometer: 30.25 inHg , 1024.4 hPa
Clouds: Clear
Visibility: 10 miles , 16 km
2022/10/03 01:56 KMSV 030156Z AUTO 01005KT 10SM CLR 09/05 A3025 RMK AO2 SLP246 T00890050
KHVN - New Haven/Tweed, Connecticut, USA
Distance from station: ENE 70mi, 112km
Updated: 10/02/2022 9:53pm
Clear
Clear
 Wind from NNE
Wind: NNE 12 mph , 19 km/h, Gust: 22 mph , 35 km/h
Temperature: 54°F , 12°C
Dew Point: 34°F , 1°C
Humidity: 47%
Barometer: 30.22 inHg , 1023.4 hPa
Clouds: Clear
Visibility: 10 miles , 16 km
2022/10/03 01:53 KHVN 030153Z 03010G19KT 10SM CLR 12/01 A3022 RMK AO2 SLP233 T01170006 $
 
KMPO - Mt. Pocono, Pennsylvania, USA
Distance from station: WNW 70mi, 113km
Updated: 10/02/2022 9:53pm
Clear
Clear
 Wind from NNE
Wind: NNE 13 mph , 20 km/h, Gust: 21 mph , 33 km/h
Temperature: 48°F , 9°C
Wind Chill: 43°F , 6°C
Dew Point: 39°F , 4°C
Humidity: 71%
Barometer: 30.20 inHg , 1022.7 hPa
Clouds: Clear
Visibility: 10 miles , 16 km
2022/10/03 01:53 KMPO 030153Z AUTO 03011G18KT 10SM CLR 09/04 A3020 RMK AO2 SLP233 T00890044 $
KPNE - Philadelphia/Ne, Pennsylvania, USA
Distance from station: SW 72mi, 116km
Updated: 10/02/2022 9:54pm
Light rain, Overcast
Light rain, Overcast
 Wind from NE
Wind: NE 10 mph , 17 km/h
Temperature: 50°F , 10°C
Wind Chill: 46°F , 8°C
Dew Point: 48°F , 9°C
Humidity: 94%
Barometer: 30.18 inHg , 1022 hPa
Summary: Light rain
Clouds: Overcast
Visibility: 10 miles , 16 km
Cloud details: Overcast 4800 ft
2022/10/03 01:54 KPNE 030154Z 04009KT 10SM -RA OVC048 10/09 A3018 RMK AO2 SLP218 P0003 T01000089 $
 
KABE - Allentown, Pennsylvania, USA
Distance from station: W 73mi, 117km
Updated: 10/02/2022 9:51pm
Mostly cloudy
Mostly cloudy
 Wind from NE
Wind: NE 10 mph , 17 km/h
Temperature: 52°F , 11°C
Dew Point: 45°F , 7°C
Humidity: 77%
Barometer: 30.18 inHg , 1022 hPa
Clouds: Mostly cloudy
Visibility: 10 miles , 16 km
Cloud details: Mostly cloudy 10000 ft
Mostly cloudy 12000 ft
2022/10/03 01:51 KABE 030151Z 05009KT 10SM BKN100 BKN120 11/07 A3018 RMK AO2 RAE35 SLP219 P0001 T01110067
KUKT - Quakertown Arp, Pennsylvania, USA
Distance from station: WSW 74mi, 119km
Updated: 10/02/2022 10:15pm
Mostly cloudy
Mostly cloudy
 Wind from NE
Wind: NE 7 mph , 11 km/h
Temperature: 50°F , 10°C
Wind Chill: 47°F , 8°C
Dew Point: 50°F , 10°C
Humidity: 100%
Barometer: 30.17 inHg , 1021.7 hPa
Clouds: Mostly cloudy
Visibility: 10 miles , 16 km
Cloud details: Mostly cloudy 4600 ft
2022/10/03 02:15 KUKT 030215Z AUTO 04006KT 10SM BKN046 10/10 A3017 RMK A01 P0003
 
KVAY - Mount Holly, New Jersey, USA
Distance from station: SSW 75mi, 120km
Updated: 10/02/2022 9:54pm
Light rain, Overcast
Light rain, Overcast
 Wind from NE
Wind: NE 5 mph , 7 km/h
Temperature: 48°F , 9°C
Wind Chill: 46°F , 8°C
Dew Point: 45°F , 7°C
Humidity: 87%
Barometer: 30.16 inHg , 1021.3 hPa
Summary: Light rain
Clouds: Overcast
Visibility: 8 miles , 13 km
Cloud details: Overcast 4200 ft
2022/10/03 01:54 KVAY 030154Z AUTO 04004KT 8SM -RA OVC042 09/07 A3016 RMK AO2 SLP213 P0008 T00890072
KXLL - Allentown Queen, Pennsylvania, USA
Distance from station: WSW 76mi, 122km
Updated: 10/02/2022 10:15pm
Light rain, Clear
Light rain, Clear
 Wind from NE
Wind: NE 10 mph , 17 km/h
Temperature: 52°F , 11°C
Dew Point: 46°F , 8°C
Humidity: 82%
Barometer: 30.19 inHg , 1022.4 hPa
Summary: Light rain
Clouds: Clear
Visibility: 10 miles , 16 km
2022/10/03 02:15 KXLL 030215Z AUTO 04009KT 10SM -RA CLR 11/08 A3019 RMK AO2
 
KFOK - Westhampton Beac, New York, USA
Distance from station: E 77mi, 124km
Updated: 10/02/2022 9:53pm
Overcast
Overcast
 Wind from NE
Wind: NE 16 mph , 26 km/h, Gust: 32 mph , 52 km/h
Temperature: 52°F , 11°C
Dew Point: 39°F , 4°C
Humidity: 62%
Barometer: 30.19 inHg , 1022.4 hPa
Clouds: Overcast
Visibility: 10 miles , 16 km
Cloud details: Overcast 7500 ft
2022/10/03 01:53 KFOK 030153Z 05014G28KT 10SM OVC075 11/04 A3019
KLOM - Philly Wings F, Pennsylvania, USA
Distance from station: SW 79mi, 128km
Updated: 10/02/2022 10:15pm
Light rain, Overcast
Light rain, Overcast
 Wind from NE
Wind: NE 8 mph , 13 km/h
Temperature: 48°F , 9°C
Wind Chill: 44°F , 7°C
Dew Point: 46°F , 8°C
Humidity: 94%
Barometer: 30.17 inHg , 1021.7 hPa
Summary: Light rain
Clouds: Overcast
Visibility: 10 miles , 16 km
Cloud details: Partly cloudy 6000 ft
Overcast 12000 ft
2022/10/03 02:15 KLOM 030215Z AUTO 05007KT 010V080 10SM -RA SCT060 OVC120 09/08 A3017 RMK AO2 T00940078
 
KMMK - Meriden, Connecticut, USA
Distance from station: NE 80mi, 128km
Updated: 10/02/2022 9:53pm
Clear
Clear
 Wind from N
Wind: N 6 mph , 9 km/h
Temperature: 50°F , 10°C
Wind Chill: 48°F , 9°C
Dew Point: 30°F , -1°C
Humidity: 47%
Barometer: 30.25 inHg , 1024.4 hPa
Clouds: Clear
Visibility: 10 miles , 16 km
2022/10/03 01:53 KMMK 030153Z AUTO 36005KT 10SM CLR 10/M01 A3025 RMK AO2 SLP242 T01001006
KPTW - Pottstown, Pennsylvania, USA
Distance from station: WSW 88mi, 141km
Updated: 10/02/2022 9:54pm
Light rain, Overcast
Light rain, Overcast
 Wind from NNE
Wind: NNE 7 mph , 11 km/h
Temperature: 50°F , 10°C
Wind Chill: 47°F , 8°C
Dew Point: 46°F , 8°C
Humidity: 88%
Barometer: 30.17 inHg , 1021.7 hPa
Summary: Light rain
Clouds: Overcast
Visibility: 10 miles , 16 km
Cloud details: Overcast 10000 ft
2022/10/03 01:54 KPTW 030154Z AUTO 03006KT 10SM -RA OVC100 10/08 A3017 RMK AO2 SLP215 P0005 T01000083
 
KSNC - Chester, Connecticut, USA
Distance from station: ENE 90mi, 146km
Updated: 10/02/2022 10:15pm
Clear
Clear
 Wind from NNE
Wind: NNE 12 mph , 19 km/h, Gust: 17 mph , 28 km/h
Barometer: 30.21 inHg , 1023 hPa
Clouds: Clear
Visibility: 10 miles , 16 km
2022/10/03 02:15 KSNC 030215Z AUTO 03010G15KT 360V060 10SM CLR A3021 RMK AO2
KPHL - Philadelphia, Pennsylvania, USA
Distance from station: SW 91mi, 146km
Updated: 10/02/2022 10:23pm
Rain, Overcast
Rain, Overcast
 Wind from NE
Wind: NE 17 mph , 28 km/h
Temperature: 50°F , 10°C
Wind Chill: 44°F , 7°C
Dew Point: 46°F , 8°C
Humidity: 88%
Barometer: 30.16 inHg , 1021.3 hPa
Summary: Rain
Clouds: Overcast
Visibility: 4 miles , 6 km
Cloud details: Partly cloudy 4700 ft
Overcast 5500 ft
2022/10/03 02:23 KPHL 030223Z 04015KT 4SM RA SCT047 OVC055 10/08 A3016 RMK AO2 P0006 T01000078
 
KAVP - Avoca/Wilkes B., Pennsylvania, USA
Distance from station: WNW 91mi, 147km
Updated: 10/02/2022 9:54pm
Clear
Clear
 Wind from NE
Wind: NE 5 mph , 7 km/h
Temperature: 54°F , 12°C
Dew Point: 45°F , 7°C
Humidity: 72%
Barometer: 30.22 inHg , 1023.4 hPa
Clouds: Clear
Visibility: 10 miles , 16 km
2022/10/03 01:54 KAVP 030154Z 05004KT 10SM CLR 12/07 A3022 RMK AO2 SLP233 T01170067
KHFD - Hartford/Brainar, Connecticut, USA
Distance from station: NE 96mi, 155km
Updated: 10/02/2022 9:53pm
Clear
Clear
 Wind from N
Wind: N 8 mph , 13 km/h
Temperature: 50°F , 10°C
Wind Chill: 47°F , 8°C
Dew Point: 34°F , 1°C
Humidity: 54%
Barometer: 30.26 inHg , 1024.7 hPa
Clouds: Clear
Visibility: 10 miles , 16 km
2022/10/03 01:53 KHFD 030153Z 36007KT 10SM CLR 10/01 A3026 RMK AO2 SLP245 T01000006 $
 
KHTO - East Hampton, New York, USA
Distance from station: E 96mi, 155km
Updated: 05/21/2022 1:35pm
NOT Current
Clear
Clear
 Wind from WNW
Wind: WNW 5 mph , 7 km/h
Temperature: 81°F , 27°C
Heat Index: 83°F , 28°C
Dew Point: 66°F , 19°C
Humidity: 62%
Barometer: 30.00 inHg , 1015.9 hPa
Clouds: Clear
Visibility: 10 miles , 16 km
2022/05/21 17:35 KHTO 211735Z AUTO 30004KT 10SM CLR 27/19 A3000 RMK AO2 T02670193
KACY - Atlantic City, New Jersey, USA
Distance from station: SSW 99mi, 160km
Updated: 10/02/2022 10:26pm
Heavy rain, Mist, Overcast
Heavy rain, Mist, Overcast
 Wind from NNE
Wind: NNE 14 mph , 22 km/h, Gust: 21 mph , 33 km/h
Temperature: 48°F , 9°C
Wind Chill: 42°F , 6°C
Dew Point: 46°F , 8°C
Humidity: 94%
Barometer: 30.10 inHg , 1019.3 hPa
Summary: Heavy rain, Mist
Clouds: Overcast
Visibility: 4 miles , 6 km
Cloud details: Mostly cloudy 900 ft
Mostly cloudy 1300 ft
Overcast 3000 ft
2022/10/03 02:26 KACY 030226Z 02012G18KT 4SM +RA BR BKN009 BKN013 OVC030 09/08 A3010 RMK AO2 P0014 T00890078